createdAt,value
2019-04-14T06:43:55.794Z,1013.72
2019-04-14T06:44:55.751Z,1013.70
2019-04-14T06:45:55.737Z,1013.73
2019-04-14T06:46:55.697Z,1013.70
2019-04-14T06:47:55.670Z,1013.66
2019-04-14T06:48:55.645Z,1013.68
2019-04-14T06:49:55.619Z,1013.69
2019-04-14T06:50:55.609Z,1013.69
2019-04-14T06:51:55.566Z,1013.67
2019-04-14T06:52:55.541Z,1013.62
2019-04-14T07:02:22.513Z,1013.68
2019-04-14T07:03:22.467Z,1013.67
2019-04-14T07:04:22.447Z,1013.64
2019-04-14T07:05:22.418Z,1013.71
2019-04-14T07:06:22.393Z,1013.69
2019-04-14T07:07:22.399Z,1013.66
2019-04-14T07:08:22.352Z,1013.72
2019-04-14T07:09:22.320Z,1013.71
2019-04-14T07:10:22.302Z,1013.71
2019-04-14T07:15:17.990Z,1013.75
2019-04-14T07:16:17.952Z,1013.81
2019-04-14T07:17:17.946Z,1013.82
2019-04-14T07:18:17.902Z,1013.82
2019-04-14T07:19:17.877Z,1013.85
2019-04-14T07:20:17.856Z,1013.78
2019-04-14T07:25:58.205Z,1013.89
2019-04-14T07:26:58.164Z,1013.88
2019-04-14T07:27:58.156Z,1013.93
2019-04-14T07:28:58.119Z,1013.88
2019-04-14T07:29:58.095Z,1013.94
2019-04-14T07:30:58.070Z,1013.93
2019-04-14T07:36:03.708Z,1013.99
2019-04-14T07:37:03.671Z,1013.98
2019-04-14T07:38:03.661Z,1013.98
2019-04-14T07:39:03.625Z,1013.99
2019-04-14T07:40:03.607Z,1014.01
2019-04-14T07:45:29.086Z,1013.87
2019-04-14T07:46:29.050Z,1013.93
2019-04-14T07:47:29.026Z,1013.91
2019-04-14T07:48:29.021Z,1013.91
2019-04-14T07:49:28.978Z,1013.92
2019-04-14T07:53:45.450Z,1013.87
2019-04-14T07:54:45.411Z,1013.87
2019-04-14T07:55:45.388Z,1013.86
2019-04-14T07:56:45.364Z,1013.87
2019-04-14T07:57:45.341Z,1013.91
2019-04-14T07:58:45.336Z,1013.88
2019-04-14T08:03:14.522Z,1013.86
2019-04-14T08:04:14.518Z,1013.84
2019-04-14T08:05:14.473Z,1013.82
2019-04-14T08:06:14.451Z,1013.83
2019-04-14T08:11:19.383Z,1013.75
2019-04-14T08:12:19.345Z,1013.70
2019-04-14T08:13:19.323Z,1013.72
2019-04-14T08:14:19.318Z,1013.71
2019-04-14T08:19:22.645Z,1013.81
2019-04-14T08:20:27.587Z,1013.81
2019-04-14T08:21:22.581Z,1013.81
2019-04-14T08:22:22.558Z,1013.80
2019-04-14T08:23:22.542Z,1013.88
2019-04-14T08:24:22.509Z,1013.86
2019-04-14T08:25:22.505Z,1013.87
2019-04-14T08:26:22.467Z,1013.83
2019-04-14T08:30:30.310Z,1013.86
2019-04-14T08:31:30.226Z,1013.85
2019-04-14T08:32:30.202Z,1013.80
2019-04-14T08:33:30.184Z,1013.84
2019-04-14T08:34:30.158Z,1013.77
2019-04-14T08:35:30.165Z,1013.78
2019-04-14T08:39:07.866Z,1013.77
2019-04-14T08:40:07.860Z,1013.75
2019-04-14T08:41:07.813Z,1013.76
2019-04-14T08:42:07.792Z,1013.79
2019-04-14T08:43:07.766Z,1013.77
2019-04-14T08:44:07.751Z,1013.81
2019-04-14T08:45:07.722Z,1013.76
2019-04-14T08:46:07.712Z,1013.80
2019-04-14T08:50:02.508Z,1013.83
2019-04-14T08:51:02.491Z,1013.80
2019-04-14T08:52:02.479Z,1013.79
2019-04-14T08:53:02.437Z,1013.77
2019-04-14T08:54:02.412Z,1013.77
2019-04-14T08:58:34.514Z,1013.81
2019-04-14T08:59:34.476Z,1013.80
2019-04-14T09:00:34.455Z,1013.78
2019-04-14T09:01:34.499Z,1013.81
2019-04-14T09:05:53.249Z,1013.84
2019-04-14T09:06:52.904Z,1013.83
2019-04-14T09:07:52.866Z,1013.80
2019-04-14T09:08:52.846Z,1013.78
2019-04-14T09:13:19.487Z,1013.78
2019-04-14T09:14:19.448Z,1013.80
2019-04-14T09:15:19.425Z,1013.78
2019-04-14T09:16:19.403Z,1013.77
2019-04-14T09:20:52.480Z,1013.80
2019-04-14T09:21:50.123Z,1013.78
2019-04-14T09:22:50.113Z,1013.84
2019-04-14T09:23:50.077Z,1013.78
2019-04-14T09:28:22.472Z,1013.82
2019-04-14T09:29:22.435Z,1013.84
2019-04-14T09:30:22.429Z,1013.84
2019-04-14T09:31:22.398Z,1013.87
2019-04-14T09:36:14.696Z,1013.87
2019-04-14T09:37:14.664Z,1013.88
2019-04-14T09:38:14.638Z,1013.86
2019-04-14T09:39:14.630Z,1013.89
2019-04-14T09:40:14.595Z,1013.88
2019-04-14T09:44:24.262Z,1013.85
2019-04-14T09:45:24.230Z,1013.85
2019-04-14T09:46:24.206Z,1013.85
2019-04-14T09:47:24.196Z,1013.89
2019-04-14T09:48:24.186Z,1013.91
2019-04-14T09:51:57.032Z,1013.86
2019-04-14T09:52:56.956Z,1013.89
2019-04-14T09:53:56.939Z,1013.91
2019-04-14T09:54:56.927Z,1013.88
2019-04-14T09:55:56.905Z,1013.88
2019-04-14T09:56:56.870Z,1013.83
2019-04-14T10:00:50.919Z,1013.80
2019-04-14T10:01:50.837Z,1013.82
2019-04-14T10:02:50.812Z,1013.82
2019-04-14T10:03:50.790Z,1013.90
2019-04-14T10:04:50.788Z,1013.88
2019-04-14T10:05:50.750Z,1013.86
2019-04-14T10:09:49.802Z,1013.87
2019-04-14T10:10:49.779Z,1013.86
2019-04-14T10:11:53.512Z,1013.84
2019-04-14T10:12:49.731Z,1013.86
2019-04-14T10:13:49.704Z,1013.92
2019-04-14T10:14:49.684Z,1013.85
2019-04-14T10:15:49.678Z,1013.86
2019-04-14T10:19:33.026Z,1013.86
2019-04-14T10:20:33.018Z,1013.91
2019-04-14T10:21:32.982Z,1013.86
2019-04-14T10:22:34.254Z,1013.88
2019-04-14T10:23:32.948Z,1013.89
2019-04-14T10:24:32.922Z,1013.87
2019-04-14T10:25:32.955Z,1013.85
2019-04-14T10:26:32.888Z,1013.89
2019-04-14T10:27:32.888Z,1013.88
2019-04-14T10:28:32.846Z,1013.84
2019-04-14T10:29:32.825Z,1013.90
2019-04-14T10:30:32.825Z,1013.89
2019-04-14T10:31:32.843Z,1013.90
2019-04-14T10:32:32.901Z,1013.89
2019-04-14T10:33:32.791Z,1013.91
2019-04-14T10:34:32.731Z,1013.86
2019-04-14T10:35:32.714Z,1013.89
2019-04-14T10:36:32.729Z,1013.85
2019-04-14T10:37:32.720Z,1013.86
2019-04-14T10:38:32.658Z,1013.90
2019-04-14T10:39:32.643Z,1013.90
2019-04-14T10:40:32.633Z,1013.92
2019-04-14T10:41:32.629Z,1013.84
2019-04-14T10:42:32.588Z,1013.89
2019-04-14T10:43:32.586Z,1013.92
2019-04-14T10:44:32.552Z,1013.97
2019-04-14T10:45:32.545Z,1013.94
2019-04-14T10:46:32.534Z,1013.95
2019-04-14T10:47:32.495Z,1013.91
2019-04-14T10:48:32.478Z,1013.94
2019-04-14T10:49:32.459Z,1013.93
2019-04-14T10:50:32.443Z,1013.90
2019-04-14T10:51:34.063Z,1013.91
2019-04-14T10:52:32.427Z,1013.92
2019-04-14T10:53:32.391Z,1013.89
2019-04-14T10:54:32.373Z,1013.91
2019-04-14T10:55:32.353Z,1013.85
2019-04-14T10:56:32.338Z,1013.86
2019-04-14T10:57:32.333Z,1013.90
2019-04-14T10:58:32.299Z,1013.88
2019-04-14T10:59:32.284Z,1013.88
2019-04-14T11:00:32.269Z,1013.91
2019-04-14T11:01:32.249Z,1013.89
2019-04-14T11:02:32.245Z,1013.90
2019-04-14T11:03:32.227Z,1013.91
2019-04-14T11:04:32.197Z,1013.93
2019-04-14T11:05:32.181Z,1013.95
2019-04-14T11:06:32.163Z,1013.89
2019-04-14T11:07:32.162Z,1013.89
2019-04-14T11:08:32.129Z,1013.88
2019-04-14T11:09:32.110Z,1013.92
2019-04-14T11:10:32.093Z,1013.94
2019-04-14T11:11:32.077Z,1013.94
2019-04-14T11:12:32.058Z,1013.93
2019-04-14T11:13:32.054Z,1013.86
2019-04-14T11:14:32.026Z,1013.90
2019-04-14T11:15:32.007Z,1013.92
2019-04-14T11:16:31.991Z,1013.91
2019-04-14T11:17:31.976Z,1013.90
2019-04-14T11:18:31.971Z,1013.90
2019-04-14T11:19:31.939Z,1013.85
2019-04-14T11:20:31.921Z,1013.90
2019-04-14T11:21:41.949Z,1013.88
2019-04-14T11:22:31.890Z,1013.80
2019-04-14T11:23:31.885Z,1013.85
2019-04-14T11:24:31.855Z,1013.80
2019-04-14T11:25:31.838Z,1013.81
2019-04-14T11:26:31.821Z,1013.80
2019-04-14T11:27:31.802Z,1013.80
2019-04-14T11:28:31.802Z,1013.81
2019-04-14T11:29:31.772Z,1013.74
2019-04-14T11:30:31.756Z,1013.78
2019-04-14T11:31:31.735Z,1013.77
2019-04-14T11:32:31.720Z,1013.79
2019-04-14T11:33:31.718Z,1013.74
2019-04-14T11:34:31.689Z,1013.71
2019-04-14T11:35:31.671Z,1013.76
2019-04-14T11:36:31.659Z,1013.76
2019-04-14T11:37:31.637Z,1013.75
2019-04-14T11:38:31.643Z,1013.77
2019-04-14T11:39:31.602Z,1013.77
2019-04-14T11:40:34.439Z,1013.76
2019-04-14T11:41:31.571Z,1013.83
2019-04-14T11:42:31.555Z,1013.79
2019-04-14T11:43:31.555Z,1013.84
2019-04-14T11:44:31.521Z,1013.80
2019-04-14T11:45:31.504Z,1013.86
2019-04-14T11:46:31.487Z,1013.74
2019-04-14T11:47:31.473Z,1013.66
2019-04-14T11:48:31.456Z,1013.83
2019-04-14T11:49:31.459Z,1013.73
2019-04-14T11:50:31.420Z,1013.69
2019-04-14T11:51:31.406Z,1013.68
2019-04-14T11:52:31.389Z,1013.61
2019-04-14T11:53:31.370Z,1013.70
2019-04-14T11:54:31.369Z,1013.73
2019-04-14T11:55:31.340Z,1013.73
2019-04-14T11:56:31.332Z,1013.86
2019-04-14T11:57:31.306Z,1013.76
2019-04-14T11:58:31.289Z,1013.75
2019-04-14T11:59:31.284Z,1013.72
2019-04-14T12:00:31.255Z,1013.72
2019-04-14T12:01:31.237Z,1013.73
2019-04-14T12:02:31.223Z,1013.80
2019-04-14T12:03:32.516Z,1013.87
2019-04-14T12:04:31.207Z,1013.88
2019-04-14T12:05:31.176Z,1013.90
2019-04-14T12:06:31.152Z,1013.83
2019-04-14T12:07:31.134Z,1013.79
2019-04-14T12:08:31.127Z,1013.86
2019-04-14T12:09:31.140Z,1013.95
2019-04-14T12:10:31.087Z,1013.90
2019-04-14T12:11:31.113Z,1013.89
2019-04-14T12:12:31.057Z,1013.82
2019-04-14T12:13:31.042Z,1013.77
2019-04-14T12:14:31.025Z,1013.78
2019-04-14T12:15:31.030Z,1013.79
2019-04-14T12:16:30.991Z,1013.75
2019-04-14T12:17:30.972Z,1013.77
2019-04-14T12:18:30.963Z,1013.72
2019-04-14T12:19:30.941Z,1013.74
2019-04-14T12:20:30.962Z,1013.75
2019-04-14T12:21:30.913Z,1013.74
2019-04-14T12:22:30.888Z,1013.69
2019-04-14T12:23:30.877Z,1013.71
2019-04-14T12:24:30.885Z,1013.67
2019-04-14T12:25:30.845Z,1013.72
2019-04-14T12:26:30.835Z,1013.74
2019-04-14T12:27:30.809Z,1013.75
2019-04-14T12:28:31.759Z,1013.71
2019-04-14T12:29:30.782Z,1013.84
2019-04-14T12:30:31.297Z,1013.90
2019-04-14T12:31:30.991Z,1013.91
2019-04-14T12:32:30.731Z,1013.92
2019-04-14T12:33:30.712Z,1013.88
2019-04-14T12:34:30.695Z,1013.81
2019-04-14T12:35:30.722Z,1013.87
2019-04-14T12:36:30.670Z,1013.92
2019-04-14T12:37:30.647Z,1013.90
2019-04-14T12:38:30.635Z,1013.89
2019-04-14T12:39:30.621Z,1013.87
2019-04-14T12:40:30.644Z,1013.91
2019-04-14T12:41:31.071Z,1013.90
2019-04-14T12:42:30.569Z,1013.89
2019-04-14T12:43:30.552Z,1013.82
2019-04-14T12:44:30.542Z,1013.71
2019-04-14T12:45:30.527Z,1013.76
2019-04-14T12:46:30.527Z,1013.73
2019-04-14T12:47:30.504Z,1013.73
2019-04-14T12:48:30.485Z,1013.71
2019-04-14T12:49:30.465Z,1013.78
2019-04-14T12:50:30.446Z,1013.86
2019-04-14T12:51:31.191Z,1013.83
2019-04-14T12:52:30.423Z,1013.80
2019-04-14T12:53:30.404Z,1013.70
2019-04-14T12:54:30.387Z,1013.72
2019-04-14T12:55:30.370Z,1013.70
2019-04-14T12:56:30.377Z,1013.86
2019-04-14T12:57:30.341Z,1013.72
2019-04-14T12:58:30.328Z,1013.71
2019-04-14T12:59:30.309Z,1013.70
2019-04-14T13:00:30.294Z,1013.71
2019-04-14T13:01:30.279Z,1013.69
2019-04-14T13:02:30.276Z,1013.73
2019-04-14T13:03:30.270Z,1013.80
2019-04-14T13:04:30.245Z,1013.82
2019-04-14T13:05:30.230Z,1013.78
2019-04-14T13:06:30.225Z,1013.82
2019-04-14T13:07:30.213Z,1013.78
2019-04-14T13:08:30.183Z,1013.77
2019-04-14T13:09:30.175Z,1013.76
2019-04-14T13:10:30.151Z,1013.75
2019-04-14T13:11:30.132Z,1013.79
2019-04-14T13:12:30.132Z,1013.69
2019-04-14T13:13:30.099Z,1013.74
2019-04-14T13:14:30.097Z,1013.73
2019-04-14T13:15:30.081Z,1013.77
2019-04-14T13:16:30.060Z,1013.76
2019-04-14T13:17:30.061Z,1013.77
2019-04-14T13:18:30.031Z,1013.77
2019-04-14T13:19:30.017Z,1013.58
2019-04-14T13:20:30.002Z,1013.59
2019-04-14T13:21:29.989Z,1013.57
2019-04-14T13:22:34.009Z,1013.75
2019-04-14T13:23:29.963Z,1013.73
2019-04-14T13:24:29.953Z,1013.73
2019-04-14T13:25:29.936Z,1013.75
2019-04-14T13:26:29.932Z,1013.74
2019-04-14T13:27:29.908Z,1013.71
2019-04-14T13:28:29.911Z,1013.68
2019-04-14T13:29:29.882Z,1013.69
2019-04-14T13:30:29.876Z,1013.67
2019-04-14T13:31:29.855Z,1013.60
2019-04-14T13:32:35.965Z,1013.65
2019-04-14T13:33:29.844Z,1013.60
2019-04-14T13:34:29.818Z,1013.69
2019-04-14T13:35:29.803Z,1013.57
2019-04-14T13:36:29.788Z,1013.63
2019-04-14T13:37:29.780Z,1013.66
2019-04-14T13:38:29.778Z,1013.51
2019-04-14T13:39:29.754Z,1013.50
2019-04-14T13:40:29.745Z,1013.53
2019-04-14T13:41:29.727Z,1013.47
2019-04-14T13:42:29.731Z,1013.53
2019-04-14T13:43:29.720Z,1013.46
2019-04-14T13:44:29.687Z,1013.51
2019-04-14T13:45:29.677Z,1013.51
2019-04-14T13:46:29.664Z,1013.68
2019-04-14T13:47:29.647Z,1013.52
2019-04-14T13:48:29.632Z,1013.45
2019-04-14T13:49:29.634Z,1013.44
2019-04-14T13:50:29.608Z,1013.41
2019-04-14T13:51:29.591Z,1013.46
2019-04-14T13:52:31.128Z,1013.44
2019-04-14T13:53:29.565Z,1013.42
2019-04-14T13:54:29.565Z,1013.42
2019-04-14T13:55:29.538Z,1013.42
2019-04-14T13:56:29.524Z,1013.41
2019-04-14T13:57:29.508Z,1013.61
2019-04-14T13:58:29.496Z,1013.80
2019-04-14T13:59:29.497Z,1013.47
2019-04-14T14:00:29.467Z,1013.42
2019-04-14T14:01:29.454Z,1013.48
2019-04-14T14:02:29.438Z,1013.80
2019-04-14T14:03:29.424Z,1013.72
2019-04-14T14:04:29.426Z,1013.50
2019-04-14T14:05:29.396Z,1013.35
2019-04-14T14:06:29.382Z,1013.33
2019-04-14T14:07:29.366Z,1013.34
2019-04-14T14:08:29.352Z,1013.40
2019-04-14T14:09:29.354Z,1013.40
2019-04-14T14:10:29.327Z,1013.37
2019-04-14T14:11:32.220Z,1013.33
2019-04-14T14:12:29.295Z,1013.39
2019-04-14T14:13:29.284Z,1013.37
2019-04-14T14:14:29.283Z,1013.39
2019-04-14T14:15:29.255Z,1013.43
2019-04-14T14:16:29.240Z,1013.65
2019-04-14T14:17:29.227Z,1013.39
2019-04-14T14:18:29.213Z,1013.74
2019-04-14T14:19:29.212Z,1013.72
2019-04-14T14:20:29.184Z,1013.67
2019-04-14T14:21:29.172Z,1013.64
2019-04-14T14:22:29.153Z,1013.58
2019-04-14T14:23:29.138Z,1013.53
2019-04-14T14:24:29.143Z,1013.43
2019-04-14T14:25:29.113Z,1013.52
2019-04-14T14:26:29.097Z,1013.39
2019-04-14T14:27:29.125Z,1013.41
2019-04-14T14:28:29.074Z,1013.43
2019-04-14T14:29:29.071Z,1013.35
2019-04-14T14:30:29.067Z,1013.31
2019-04-14T14:31:29.035Z,1013.37
2019-04-14T14:32:29.023Z,1013.44
2019-04-14T14:33:29.010Z,1013.31
2019-04-14T14:34:28.995Z,1013.44
2019-04-14T14:35:29.001Z,1013.41
2019-04-14T14:36:28.969Z,1013.34
2019-04-14T14:37:28.957Z,1013.28
2019-04-14T14:38:28.947Z,1013.27
2019-04-14T14:39:28.936Z,1013.28
2019-04-14T14:40:28.932Z,1013.25
2019-04-14T14:41:28.906Z,1013.26
2019-04-14T14:42:28.898Z,1013.27
2019-04-14T14:43:28.880Z,1013.28
2019-04-14T14:44:28.871Z,1013.26
2019-04-14T14:45:28.872Z,1013.28
2019-04-14T14:46:28.841Z,1013.26
2019-04-14T14:47:28.838Z,1013.39
2019-04-14T14:48:28.814Z,1013.38
2019-04-14T14:49:28.799Z,1013.38
2019-04-14T14:50:28.809Z,1013.35
2019-04-14T14:51:28.795Z,1013.42
2019-04-14T14:52:28.757Z,1013.38
2019-04-14T14:53:28.749Z,1013.31
2019-04-14T14:54:28.737Z,1013.35
2019-04-14T14:55:28.720Z,1013.30
2019-04-14T14:56:28.724Z,1013.31
2019-04-14T14:57:28.698Z,1013.30
2019-04-14T14:58:28.681Z,1013.17
2019-04-14T14:59:28.672Z,1013.15
2019-04-14T15:00:28.706Z,1013.15
2019-04-14T15:01:28.663Z,1013.17
2019-04-14T15:02:28.639Z,1013.14
2019-04-14T15:03:28.623Z,1013.18
2019-04-14T15:04:28.610Z,1013.13
2019-04-14T15:05:28.598Z,1013.16
2019-04-14T15:06:28.680Z,1013.20
2019-04-14T15:07:28.586Z,1013.20
2019-04-14T15:08:28.563Z,1013.36
2019-04-14T15:09:28.547Z,1013.36
2019-04-14T15:10:28.543Z,1013.34
2019-04-14T15:11:28.534Z,1013.47
2019-04-14T15:12:28.510Z,1013.58
2019-04-14T15:13:28.497Z,1013.49
2019-04-14T15:14:28.503Z,1013.48
2019-04-14T15:15:28.473Z,1013.56
2019-04-14T15:16:28.492Z,1013.56
2019-04-14T15:17:28.442Z,1013.46
2019-04-14T15:18:28.436Z,1013.20
2019-04-14T15:19:28.418Z,1013.32
2019-04-14T15:20:28.419Z,1013.25
2019-04-14T15:21:28.397Z,1013.18
2019-04-14T15:22:28.425Z,1013.28
2019-04-14T15:23:28.373Z,1013.22
2019-04-14T15:24:28.362Z,1013.22
2019-04-14T15:25:28.349Z,1013.20
2019-04-14T15:26:28.340Z,1013.18
2019-04-14T15:27:28.348Z,1013.30
2019-04-14T15:28:28.312Z,1013.37
2019-04-14T15:29:28.304Z,1013.48
2019-04-14T15:30:28.288Z,1013.47
2019-04-14T15:31:28.275Z,1013.20
2019-04-14T15:32:28.278Z,1013.20
2019-04-14T15:33:28.252Z,1013.82
2019-04-14T15:34:28.239Z,1013.89
2019-04-14T15:35:28.222Z,1013.85
2019-04-14T15:36:28.248Z,1013.77
2019-04-14T15:37:28.193Z,1013.72
2019-04-14T15:38:28.187Z,1013.62
2019-04-14T15:39:28.168Z,1013.57
2019-04-14T15:40:28.158Z,1013.64
2019-04-14T15:41:28.144Z,1013.64
2019-04-14T15:42:28.146Z,1013.68
2019-04-14T15:43:28.124Z,1013.69
2019-04-14T15:44:28.113Z,1013.75
2019-04-14T15:45:28.096Z,1013.66
2019-04-14T15:46:28.093Z,1013.44
2019-04-14T15:47:28.086Z,1013.37
2019-04-14T15:48:28.074Z,1013.41
2019-04-14T15:49:28.051Z,1013.45
2019-04-14T15:50:28.039Z,1013.50
2019-04-14T15:51:28.029Z,1013.63
2019-04-14T15:52:28.036Z,1013.70
2019-04-14T15:53:37.785Z,1013.75
2019-04-14T15:54:27.993Z,1013.81
2019-04-14T15:55:27.979Z,1013.85
2019-04-14T15:56:27.979Z,1013.79
2019-04-14T15:57:27.979Z,1013.85
2019-04-14T15:58:27.962Z,1013.79
2019-04-14T15:59:29.508Z,1013.78
2019-04-14T16:00:27.922Z,1013.83
2019-04-14T16:01:27.908Z,1013.90
2019-04-14T16:02:27.897Z,1013.88
2019-04-14T16:03:27.898Z,1013.90
2019-04-14T16:04:27.872Z,1013.96
2019-04-14T16:05:27.864Z,1013.93
2019-04-14T16:06:27.851Z,1013.95
2019-04-14T16:07:27.838Z,1013.98
2019-04-14T16:08:27.844Z,1013.98
2019-04-14T16:09:27.817Z,1013.98
2019-04-14T16:10:27.805Z,1013.95
2019-04-14T16:11:27.792Z,1013.99
2019-04-14T16:12:27.785Z,1014.02
2019-04-14T16:13:27.772Z,1014.04
2019-04-14T16:14:27.773Z,1014.06
2019-04-14T16:15:27.750Z,1014.04
2019-04-14T16:16:27.741Z,1014.08
2019-04-14T16:17:27.730Z,1014.08
2019-04-14T16:18:27.731Z,1014.06
2019-04-14T16:19:27.738Z,1014.05
2019-04-14T16:20:27.700Z,1014.06
2019-04-14T16:21:27.698Z,1014.10
2019-04-14T16:22:27.678Z,1014.18
2019-04-14T16:23:27.668Z,1014.12
2019-04-14T16:24:27.659Z,1014.13
2019-04-14T16:25:27.663Z,1014.14
2019-04-14T16:26:27.648Z,1014.14
2019-04-14T16:27:27.628Z,1014.15
2019-04-14T16:28:27.616Z,1014.07
2019-04-14T16:29:27.606Z,1014.05
2019-04-14T16:30:27.610Z,1013.99
2019-04-14T16:31:27.589Z,1014.12
2019-04-14T16:32:27.574Z,1014.25
2019-04-14T16:33:27.567Z,1014.22
2019-04-14T16:34:27.555Z,1014.20
2019-04-14T16:35:27.556Z,1014.27
2019-04-14T16:36:27.530Z,1014.26
2019-04-14T16:37:27.526Z,1014.24
2019-04-14T16:38:27.510Z,1014.21
2019-04-14T16:39:27.498Z,1014.27
2019-04-14T16:40:27.499Z,1014.30
2019-04-14T16:41:27.479Z,1014.34
2019-04-14T16:42:27.464Z,1014.36
2019-04-14T16:43:27.453Z,1014.36
2019-04-14T16:44:27.439Z,1014.39
2019-04-14T16:45:27.452Z,1014.37
2019-04-14T16:46:27.421Z,1014.39
2019-04-14T16:47:27.406Z,1014.36
2019-04-14T16:48:27.394Z,1014.44
2019-04-14T16:49:27.385Z,1014.36
2019-04-14T16:50:27.374Z,1014.35
2019-04-14T16:51:27.386Z,1014.37
2019-04-14T16:52:27.351Z,1014.37
2019-04-14T16:53:27.350Z,1014.38
2019-04-14T16:54:27.328Z,1014.26
2019-04-14T16:55:29.680Z,1014.37
2019-04-14T16:56:27.305Z,1014.40
2019-04-14T16:57:28.978Z,1014.42
2019-04-14T16:58:27.283Z,1014.44
2019-04-14T16:59:27.268Z,1014.50
2019-04-14T17:00:27.258Z,1014.48
2019-04-14T17:01:27.340Z,1014.48
2019-04-14T17:02:27.235Z,1014.41
2019-04-14T17:03:27.222Z,1014.43
2019-04-14T17:04:27.212Z,1014.32
2019-04-14T17:05:27.236Z,1014.34
2019-04-14T17:06:27.186Z,1014.26
2019-04-14T17:07:27.169Z,1014.30
2019-04-14T17:08:27.156Z,1014.28
2019-04-14T17:09:27.142Z,1014.32
2019-04-14T17:10:27.130Z,1014.33
2019-04-14T17:11:27.129Z,1014.37
2019-04-14T17:12:27.097Z,1014.39
2019-04-14T17:13:27.091Z,1014.42
2019-04-14T17:14:27.069Z,1014.44
2019-04-14T17:15:27.056Z,1014.39
2019-04-14T17:16:27.059Z,1014.33
2019-04-14T17:17:27.023Z,1014.43
2019-04-14T17:18:27.048Z,1014.39
2019-04-14T17:19:26.994Z,1014.38
2019-04-14T17:20:26.976Z,1014.38
2019-04-14T17:21:26.977Z,1014.43
2019-04-14T17:22:26.949Z,1014.47
2019-04-14T17:23:26.929Z,1014.45
2019-04-14T17:24:26.911Z,1014.43
2019-04-14T17:25:26.917Z,1014.52
2019-04-14T17:26:26.882Z,1014.53
2019-04-14T17:27:26.873Z,1014.51
2019-04-14T17:28:26.846Z,1014.50
2019-04-14T17:29:26.830Z,1014.52
2019-04-14T17:30:26.812Z,1014.56
2019-04-14T17:31:26.795Z,1014.55
2019-04-14T17:32:26.791Z,1014.51
2019-04-14T17:33:26.763Z,1014.53
2019-04-14T17:34:26.743Z,1014.53
2019-04-14T17:35:26.725Z,1014.54
2019-04-14T17:36:26.706Z,1014.56
2019-04-14T17:37:26.707Z,1014.55
2019-04-14T17:38:26.673Z,1014.48
2019-04-14T17:39:26.653Z,1014.52
2019-04-14T17:40:26.638Z,1014.57
2019-04-14T17:41:26.625Z,1014.59
2019-04-14T17:42:26.631Z,1014.60
2019-04-14T17:43:26.583Z,1014.64
2019-04-14T17:44:26.566Z,1014.64
2019-04-14T17:45:26.547Z,1014.67
2019-04-14T17:46:26.531Z,1014.67
2019-04-14T17:47:26.510Z,1014.69
2019-04-14T17:48:26.508Z,1014.67
2019-04-14T17:49:26.479Z,1014.75
2019-04-14T17:50:26.520Z,1014.72
2019-04-14T17:51:26.436Z,1014.75
2019-04-14T17:52:26.417Z,1014.76
2019-04-14T17:53:26.414Z,1014.74
2019-04-14T17:54:29.480Z,1014.77
2019-04-14T17:55:26.384Z,1014.75
2019-04-14T17:56:26.344Z,1014.83
2019-04-14T17:57:26.362Z,1014.81
2019-04-14T17:58:26.309Z,1014.79
2019-04-14T17:59:26.288Z,1014.84
2019-04-14T18:00:26.272Z,1014.93
2019-04-14T18:01:26.253Z,1014.92
2019-04-14T18:02:26.232Z,1014.98
2019-04-14T18:03:26.224Z,1014.93
2019-04-14T18:04:26.193Z,1015.01
2019-04-14T18:05:26.198Z,1014.99
2019-04-14T18:06:26.152Z,1015.00
2019-04-14T18:07:26.133Z,1014.99
2019-04-14T18:08:26.132Z,1015.02
2019-04-14T18:09:28.608Z,1015.01
2019-04-14T18:10:26.078Z,1015.02
2019-04-14T18:11:26.057Z,1015.00
2019-04-14T18:12:26.044Z,1014.98
2019-04-14T18:13:26.072Z,1015.04
2019-04-14T18:14:26.012Z,1015.05
2019-04-14T18:15:25.986Z,1015.02
2019-04-14T18:16:25.961Z,1015.05
2019-04-14T18:17:25.940Z,1015.00
2019-04-14T18:18:25.920Z,1014.99
2019-04-14T18:19:25.914Z,1014.97
2019-04-14T18:20:25.884Z,1014.95
2019-04-14T18:21:25.911Z,1014.99
2019-04-14T18:22:25.843Z,1014.94
2019-04-14T18:23:25.822Z,1014.98
2019-04-14T18:24:25.815Z,1015.02
2019-04-14T18:25:25.782Z,1015.01
2019-04-14T18:26:25.763Z,1015.03
2019-04-14T18:27:25.741Z,1015.02
2019-04-14T18:28:25.728Z,1015.08
2019-04-14T18:29:25.717Z,1015.10
2019-04-14T18:30:25.680Z,1015.12
2019-04-14T18:31:25.659Z,1015.12
2019-04-14T18:32:25.641Z,1015.11
2019-04-14T18:33:25.620Z,1015.19
2019-04-14T18:34:25.617Z,1015.14
2019-04-14T18:35:25.597Z,1015.17
2019-04-14T18:36:25.559Z,1015.18
2019-04-14T18:37:25.541Z,1015.22
2019-04-14T18:38:25.518Z,1015.17
2019-04-14T18:39:25.498Z,1015.19
2019-04-14T18:40:25.550Z,1015.17
2019-04-14T18:41:25.456Z,1015.19
2019-04-14T18:42:25.436Z,1015.19
2019-04-14T18:43:25.414Z,1015.20
2019-04-14T18:44:25.395Z,1015.18
2019-04-14T18:45:25.388Z,1015.23
2019-04-14T18:46:25.355Z,1015.23
2019-04-14T18:47:25.333Z,1015.23
2019-04-14T18:48:25.314Z,1015.23
2019-04-14T18:49:25.293Z,1015.25
2019-04-14T18:50:25.308Z,1015.22
2019-04-14T18:51:25.258Z,1015.24
2019-04-14T18:52:25.229Z,1015.28
2019-04-14T18:53:25.208Z,1015.22
2019-04-14T18:54:25.188Z,1015.27
2019-04-14T18:55:25.166Z,1015.26
2019-04-14T18:56:25.163Z,1015.27
2019-04-14T18:57:25.125Z,1015.30
2019-04-14T18:58:25.111Z,1015.30
2019-04-14T18:59:25.086Z,1015.33
2019-04-14T19:00:25.062Z,1015.34
2019-04-14T19:01:25.057Z,1015.39
2019-04-14T19:02:25.021Z,1015.37
2019-04-14T19:03:25.007Z,1015.42
2019-04-14T19:04:24.980Z,1015.47
2019-04-14T19:05:24.959Z,1015.50
2019-04-14T19:06:24.949Z,1015.52
2019-04-14T19:07:24.917Z,1015.49
2019-04-14T19:08:24.893Z,1015.56
2019-04-14T19:09:24.871Z,1015.56
2019-04-14T19:10:24.851Z,1015.56
2019-04-14T19:11:24.848Z,1015.57
2019-04-14T19:12:24.810Z,1015.57
2019-04-14T19:13:24.789Z,1015.50
2019-04-14T19:14:24.768Z,1015.56
2019-04-14T19:15:24.744Z,1015.64
2019-04-14T19:16:24.724Z,1015.67
2019-04-14T19:17:24.717Z,1015.66
2019-04-14T19:18:25.807Z,1015.68
2019-04-14T19:19:24.661Z,1015.73
2019-04-14T19:20:24.641Z,1015.73
2019-04-14T19:21:24.620Z,1015.69
2019-04-14T19:22:24.611Z,1015.74
2019-04-14T19:23:24.579Z,1015.71
2019-04-14T19:24:24.554Z,1015.78
2019-04-14T19:25:24.533Z,1015.71
2019-04-14T19:26:24.512Z,1015.76
2019-04-14T19:27:24.512Z,1015.82
2019-04-14T19:28:24.472Z,1015.75
2019-04-14T19:29:24.447Z,1015.80
2019-04-14T19:30:24.426Z,1015.76
2019-04-14T19:31:24.410Z,1015.79
2019-04-14T19:32:24.382Z,1015.82
2019-04-14T19:33:24.374Z,1015.84
2019-04-14T19:34:24.341Z,1015.81
2019-04-14T19:35:26.787Z,1015.87
2019-04-14T19:36:24.297Z,1015.86
2019-04-14T19:37:24.276Z,1015.87
2019-04-14T19:38:24.268Z,1015.90
2019-04-14T19:39:24.232Z,1015.90
2019-04-14T19:40:24.210Z,1015.95
2019-04-14T19:41:24.188Z,1015.92
2019-04-14T19:42:24.168Z,1015.95
2019-04-14T19:43:24.401Z,1015.99
2019-04-14T19:44:24.124Z,1015.97
2019-04-14T19:45:24.105Z,1015.99
2019-04-14T19:46:24.081Z,1016.07
2019-04-14T19:47:24.071Z,1016.04
2019-04-14T19:48:24.038Z,1016.08
2019-04-14T19:49:24.032Z,1016.03
2019-04-14T19:50:23.999Z,1016.03
2019-04-14T19:51:23.983Z,1016.01
2019-04-14T19:52:23.950Z,1016.04
2019-04-14T19:53:23.931Z,1016.03
2019-04-14T19:54:23.920Z,1016.06
2019-04-14T19:55:23.884Z,1016.04
2019-04-14T19:56:23.865Z,1016.05
2019-04-14T19:57:23.843Z,1016.02
2019-04-14T19:58:23.822Z,1016.04
2019-04-14T19:59:23.815Z,1016.09
2019-04-14T20:00:23.777Z,1016.09
2019-04-14T20:01:23.764Z,1016.13
2019-04-14T20:02:23.734Z,1016.12
2019-04-14T20:03:23.715Z,1016.11
2019-04-14T20:04:23.688Z,1016.16
2019-04-14T20:05:23.681Z,1016.19
2019-04-14T20:06:23.645Z,1016.21
2019-04-14T20:07:23.622Z,1016.19
2019-04-14T20:08:23.603Z,1016.22
2019-04-14T20:09:23.581Z,1016.18
2019-04-14T20:10:23.572Z,1016.23
2019-04-14T20:11:23.539Z,1016.24
2019-04-14T20:12:23.513Z,1016.22
2019-04-14T20:13:23.493Z,1016.24